createdAt,value
2018-03-26T00:00:56.205Z,6.30
2018-03-26T00:01:56.230Z,6.20
2018-03-26T00:02:56.243Z,6.22
2018-03-26T00:03:56.271Z,6.26
2018-03-26T00:04:56.288Z,6.36
2018-03-26T00:05:56.270Z,6.44
2018-03-26T00:06:56.288Z,6.44
2018-03-26T00:07:56.316Z,6.42
2018-03-26T00:08:56.373Z,6.46
2018-03-26T00:09:56.345Z,6.54
2018-03-26T00:10:56.348Z,6.44
2018-03-26T00:11:56.374Z,6.44
2018-03-26T00:12:56.385Z,6.36
2018-03-26T00:13:56.388Z,6.46
2018-03-26T00:14:56.405Z,6.48
2018-03-26T00:15:56.457Z,6.57
2018-03-26T00:16:56.456Z,6.46
2018-03-26T00:17:56.450Z,6.57
2018-03-26T00:18:56.489Z,6.56
2018-03-26T00:19:56.478Z,6.52
2018-03-26T00:20:56.569Z,6.62
2018-03-26T00:21:56.504Z,6.64
2018-03-26T00:22:56.527Z,6.66
2018-03-26T00:23:56.558Z,6.52
2018-03-26T00:24:56.552Z,6.42
2018-03-26T00:25:56.578Z,6.52
2018-03-26T00:26:56.573Z,6.51
2018-03-26T00:27:56.597Z,6.49
2018-03-26T00:28:56.628Z,6.60
2018-03-26T00:29:56.657Z,6.42
2018-03-26T00:30:56.674Z,6.45
2018-03-26T00:31:56.655Z,6.56
2018-03-26T00:32:56.682Z,6.59
2018-03-26T00:33:56.694Z,6.51
2018-03-26T00:34:56.703Z,6.60
2018-03-26T00:35:56.709Z,6.67
2018-03-26T00:36:56.730Z,6.63
2018-03-26T00:37:56.750Z,6.57
2018-03-26T00:38:56.750Z,6.57
2018-03-26T00:39:56.767Z,6.69
2018-03-26T00:40:56.815Z,6.70
2018-03-26T00:41:56.803Z,6.70
2018-03-26T00:42:56.805Z,6.74
2018-03-26T00:43:56.824Z,6.72
2018-03-26T00:44:56.861Z,6.78
2018-03-26T00:45:56.872Z,6.72
2018-03-26T00:46:56.877Z,6.72
2018-03-26T00:47:56.891Z,6.85
2018-03-26T00:48:56.905Z,6.87
2018-03-26T00:49:56.923Z,6.77
2018-03-26T00:50:56.928Z,6.77
2018-03-26T00:51:57.006Z,6.72
2018-03-26T00:52:56.968Z,6.49
2018-03-26T00:53:56.975Z,6.36
2018-03-26T00:54:56.997Z,6.27
2018-03-26T00:55:57.006Z,6.08
2018-03-26T00:56:57.044Z,6.05
2018-03-26T00:57:57.034Z,6.14
2018-03-26T00:58:57.104Z,6.11
2018-03-26T00:59:57.061Z,6.01
2018-03-26T01:00:57.113Z,5.99
2018-03-26T01:01:57.108Z,5.98
2018-03-26T01:02:57.121Z,6.08
2018-03-26T01:03:57.195Z,6.41
2018-03-26T01:04:57.130Z,6.41
2018-03-26T01:05:57.167Z,6.48
2018-03-26T01:06:57.180Z,6.45
2018-03-26T01:07:57.210Z,6.54
2018-03-26T01:08:57.196Z,6.52
2018-03-26T01:09:57.249Z,6.46
2018-03-26T01:10:57.257Z,6.46
2018-03-26T01:11:57.237Z,6.54
2018-03-26T01:12:57.257Z,6.63
2018-03-26T01:13:57.271Z,6.72
2018-03-26T01:14:57.291Z,6.69
2018-03-26T01:15:57.290Z,6.64
2018-03-26T01:16:57.314Z,6.64
2018-03-26T01:17:57.327Z,6.67
2018-03-26T01:18:57.370Z,6.69
2018-03-26T01:19:57.353Z,6.67
2018-03-26T01:20:57.365Z,6.70
2018-03-26T01:21:57.426Z,6.69
2018-03-26T01:22:57.396Z,6.78
2018-03-26T01:23:57.423Z,6.74
2018-03-26T01:24:57.454Z,6.67
2018-03-26T01:25:57.470Z,6.69
2018-03-26T01:26:57.472Z,6.78
2018-03-26T01:27:57.478Z,6.81
2018-03-26T01:28:57.517Z,6.75
2018-03-26T01:29:57.503Z,6.78
2018-03-26T01:30:57.532Z,6.84
2018-03-26T01:31:57.532Z,6.79
2018-03-26T01:32:57.552Z,6.93
2018-03-26T01:33:57.578Z,6.81
2018-03-26T01:34:57.599Z,6.97
2018-03-26T01:35:57.628Z,6.99
2018-03-26T01:36:57.609Z,6.95
2018-03-26T01:37:57.654Z,6.81
2018-03-26T01:38:57.627Z,6.70
2018-03-26T01:39:57.652Z,6.74
2018-03-26T01:40:57.693Z,6.66
2018-03-26T01:41:57.725Z,6.52
2018-03-26T01:42:57.688Z,6.41
2018-03-26T01:43:57.723Z,6.39
2018-03-26T01:44:57.734Z,6.39
2018-03-26T01:45:57.751Z,6.28
2018-03-26T01:46:57.755Z,6.33
2018-03-26T01:47:57.774Z,6.27
2018-03-26T01:48:57.780Z,6.16
2018-03-26T01:49:57.805Z,6.22
2018-03-26T01:50:57.839Z,6.30
2018-03-26T01:51:57.818Z,6.30
2018-03-26T01:52:57.868Z,6.45
2018-03-26T01:53:57.852Z,6.57
2018-03-26T01:54:57.871Z,6.57
2018-03-26T01:55:57.884Z,6.54
2018-03-26T01:56:57.910Z,6.70
2018-03-26T01:57:57.920Z,6.74
2018-03-26T01:58:58.079Z,6.67
2018-03-26T01:59:57.953Z,6.62
2018-03-26T02:00:57.963Z,6.59
2018-03-26T02:01:57.968Z,6.67
2018-03-26T02:02:58.004Z,6.66
2018-03-26T02:03:58.003Z,6.84
2018-03-26T02:04:58.040Z,6.78
2018-03-26T02:05:58.043Z,6.84
2018-03-26T02:06:58.047Z,6.75
2018-03-26T02:07:58.062Z,6.69
2018-03-26T02:08:58.095Z,6.77
2018-03-26T02:09:58.091Z,6.74
2018-03-26T02:10:58.136Z,6.87
2018-03-26T02:11:58.126Z,6.89
2018-03-26T02:12:58.140Z,6.96
2018-03-26T02:13:58.152Z,6.97
2018-03-26T02:14:58.207Z,7.00
2018-03-26T02:15:58.179Z,7.03
2018-03-26T02:16:58.196Z,6.95
2018-03-26T02:17:58.229Z,7.00
2018-03-26T02:18:58.227Z,6.99
2018-03-26T02:19:58.236Z,7.00
2018-03-26T02:20:58.276Z,6.95
2018-03-26T02:21:58.285Z,6.96
2018-03-26T02:22:58.380Z,6.82
2018-03-26T02:23:58.315Z,6.89
2018-03-26T02:24:58.314Z,6.70
2018-03-26T02:25:58.350Z,6.62
2018-03-26T02:26:58.381Z,6.74
2018-03-26T02:27:58.358Z,6.84
2018-03-26T02:28:58.365Z,6.74
2018-03-26T02:29:58.396Z,6.78
2018-03-26T02:30:58.403Z,6.82
2018-03-26T02:31:58.415Z,6.81
2018-03-26T02:32:58.434Z,6.82
2018-03-26T02:33:58.445Z,6.93
2018-03-26T02:34:58.465Z,6.82
2018-03-26T02:35:58.481Z,6.95
2018-03-26T02:36:58.488Z,6.92
2018-03-26T02:37:58.514Z,6.99
2018-03-26T02:38:58.526Z,7.03
2018-03-26T02:39:58.527Z,7.03
2018-03-26T02:40:58.570Z,6.78
2018-03-26T02:41:58.586Z,6.96
2018-03-26T02:42:58.579Z,6.93
2018-03-26T02:43:58.607Z,6.99
2018-03-26T02:44:58.613Z,6.92
2018-03-26T02:45:58.630Z,6.92
2018-03-26T02:46:58.643Z,6.95
2018-03-26T02:47:58.663Z,6.99
2018-03-26T02:48:58.679Z,7.11
2018-03-26T02:49:58.711Z,7.13
2018-03-26T02:50:58.716Z,7.05
2018-03-26T02:51:58.735Z,6.85
2018-03-26T02:52:58.748Z,6.88
2018-03-26T02:53:58.737Z,6.66
2018-03-26T02:54:58.756Z,6.46
2018-03-26T02:55:58.766Z,6.69
2018-03-26T02:56:58.793Z,6.51
2018-03-26T02:57:58.805Z,6.26
2018-03-26T02:58:58.852Z,6.02
2018-03-26T02:59:58.845Z,6.46
2018-03-26T03:00:58.861Z,6.64
2018-03-26T03:01:58.883Z,6.78
2018-03-26T03:02:58.873Z,6.78
2018-03-26T03:03:58.903Z,6.75
2018-03-26T03:04:58.911Z,6.88
2018-03-26T03:05:58.915Z,6.89
2018-03-26T03:06:58.951Z,7.00
2018-03-26T03:07:58.981Z,7.05
2018-03-26T03:08:58.965Z,6.81
2018-03-26T03:09:58.977Z,6.93
2018-03-26T03:10:58.989Z,7.06
2018-03-26T03:11:59.021Z,7.14
2018-03-26T03:12:59.053Z,7.17
2018-03-26T03:13:59.054Z,7.03
2018-03-26T03:14:59.049Z,7.05
2018-03-26T03:15:59.071Z,6.95
2018-03-26T03:16:59.098Z,6.74
2018-03-26T03:17:59.101Z,6.82
2018-03-26T03:18:59.122Z,6.92
2018-03-26T03:19:59.151Z,6.97
2018-03-26T03:20:59.153Z,6.78
2018-03-26T03:21:59.178Z,6.56
2018-03-26T03:22:59.199Z,6.67
2018-03-26T03:23:59.185Z,6.81
2018-03-26T03:24:59.213Z,6.70
2018-03-26T03:25:59.204Z,6.79
2018-03-26T03:26:59.242Z,6.99
2018-03-26T03:27:59.244Z,7.03
2018-03-26T03:28:59.286Z,7.05
2018-03-26T03:29:59.287Z,7.14
2018-03-26T03:30:59.349Z,7.10
2018-03-26T03:31:59.300Z,7.07
2018-03-26T03:32:59.312Z,7.07
2018-03-26T03:33:59.350Z,7.17
2018-03-26T03:34:59.345Z,7.14
2018-03-26T03:35:59.369Z,7.15
2018-03-26T03:36:59.373Z,7.17
2018-03-26T03:37:59.384Z,7.17
2018-03-26T03:38:59.405Z,7.11
2018-03-26T03:39:59.420Z,7.15
2018-03-26T03:40:59.428Z,7.14
2018-03-26T03:41:59.451Z,7.18
2018-03-26T03:42:59.460Z,7.15
2018-03-26T03:43:59.504Z,7.24
2018-03-26T03:44:59.489Z,7.28
2018-03-26T03:45:59.523Z,7.33
2018-03-26T03:46:59.532Z,7.40
2018-03-26T03:47:59.535Z,7.35
2018-03-26T03:48:59.620Z,7.40
2018-03-26T03:49:59.583Z,7.43
2018-03-26T03:50:59.615Z,7.15
2018-03-26T03:51:59.597Z,7.20
2018-03-26T03:52:59.625Z,7.17
2018-03-26T03:53:59.620Z,7.29
2018-03-26T03:54:59.694Z,7.18
2018-03-26T03:55:59.655Z,7.28
2018-03-26T03:56:59.695Z,7.15
2018-03-26T03:57:59.694Z,6.99
2018-03-26T03:58:59.751Z,6.84
2018-03-26T03:59:59.716Z,6.81
2018-03-26T04:00:59.731Z,6.87
2018-03-26T04:01:59.757Z,6.66
2018-03-26T04:02:59.764Z,6.70
2018-03-26T04:03:59.839Z,6.81
2018-03-26T04:04:59.806Z,6.89
2018-03-26T04:05:59.805Z,6.96
2018-03-26T04:06:59.824Z,7.18
2018-03-26T04:07:59.831Z,7.14
2018-03-26T04:08:59.849Z,7.11
2018-03-26T04:09:59.863Z,7.05
2018-03-26T04:10:59.886Z,6.81
2018-03-26T04:11:59.909Z,6.84
2018-03-26T04:12:59.912Z,6.74
2018-03-26T04:13:59.920Z,6.79
2018-03-26T04:14:59.938Z,7.00
2018-03-26T04:15:59.975Z,6.96
2018-03-26T04:16:59.967Z,6.92
2018-03-26T04:17:59.994Z,7.02
2018-03-26T04:18:59.989Z,7.14
2018-03-26T04:20:00.025Z,7.07
2018-03-26T04:21:00.035Z,7.05
2018-03-26T04:22:00.046Z,6.97
2018-03-26T04:23:00.061Z,6.78
2018-03-26T04:24:00.078Z,6.84
2018-03-26T04:25:00.086Z,6.79
2018-03-26T04:26:00.098Z,6.81
2018-03-26T04:27:00.155Z,6.79
2018-03-26T04:28:00.127Z,6.89
2018-03-26T04:29:00.139Z,7.11
2018-03-26T04:30:00.171Z,7.03
2018-03-26T04:31:00.190Z,7.17
2018-03-26T04:32:00.205Z,7.14
2018-03-26T04:33:00.200Z,7.17
2018-03-26T04:34:00.221Z,7.17
2018-03-26T04:35:00.229Z,7.17
2018-03-26T04:36:00.242Z,7.20
2018-03-26T04:37:00.282Z,7.28
2018-03-26T04:38:00.273Z,7.15
2018-03-26T04:39:00.314Z,7.23
2018-03-26T04:40:00.365Z,7.28
2018-03-26T04:41:00.328Z,7.25
2018-03-26T04:42:00.328Z,7.32
2018-03-26T04:43:00.345Z,7.11
2018-03-26T04:44:00.397Z,7.15
2018-03-26T04:45:00.379Z,7.21
2018-03-26T04:46:00.391Z,7.17
2018-03-26T04:47:00.423Z,6.99
2018-03-26T04:48:00.432Z,7.03
2018-03-26T04:49:00.443Z,7.10
2018-03-26T04:50:00.482Z,6.96
2018-03-26T04:51:00.490Z,6.97
2018-03-26T04:52:00.505Z,7.00
2018-03-26T04:53:00.564Z,7.17
2018-03-26T04:54:00.527Z,7.18
2018-03-26T04:55:00.539Z,7.28
2018-03-26T04:56:00.570Z,7.32
2018-03-26T04:57:00.566Z,7.36
2018-03-26T04:58:00.571Z,7.38
2018-03-26T04:59:00.594Z,7.36
2018-03-26T05:00:00.611Z,7.38
2018-03-26T05:01:00.618Z,7.38
2018-03-26T05:02:00.650Z,7.32
2018-03-26T05:03:00.653Z,7.18
2018-03-26T05:04:00.680Z,7.17
2018-03-26T05:05:00.677Z,7.14
2018-03-26T05:06:00.728Z,7.05
2018-03-26T05:07:00.717Z,6.97
2018-03-26T05:08:00.755Z,6.85
2018-03-26T05:09:00.756Z,6.93
2018-03-26T05:10:00.832Z,7.03
2018-03-26T05:11:00.767Z,7.00
2018-03-26T05:12:00.791Z,6.93
2018-03-26T05:13:00.807Z,6.92
2018-03-26T05:14:00.823Z,6.99
2018-03-26T05:15:00.820Z,6.81
2018-03-26T05:16:00.848Z,6.74
2018-03-26T05:17:00.860Z,6.81
2018-03-26T05:18:00.913Z,6.96
2018-03-26T05:19:00.897Z,7.00
2018-03-26T05:20:00.929Z,7.14
2018-03-26T05:21:00.930Z,7.20
2018-03-26T05:22:00.944Z,7.28
2018-03-26T05:23:00.956Z,7.21
2018-03-26T05:24:00.976Z,7.33
2018-03-26T05:25:01.029Z,7.33
2018-03-26T05:26:00.989Z,7.38
2018-03-26T05:27:01.012Z,7.39
2018-03-26T05:28:01.047Z,7.31
2018-03-26T05:29:01.038Z,7.10
2018-03-26T05:30:01.060Z,6.81
2018-03-26T05:31:01.080Z,6.75
2018-03-26T05:32:01.080Z,6.88
2018-03-26T05:33:01.103Z,6.95
2018-03-26T05:34:01.143Z,6.96
2018-03-26T05:35:01.132Z,7.15
2018-03-26T05:36:01.170Z,7.15
2018-03-26T05:37:01.168Z,7.25
2018-03-26T05:38:01.207Z,7.42
2018-03-26T05:39:01.209Z,7.38
2018-03-26T05:40:01.236Z,7.32
2018-03-26T05:41:01.239Z,7.33
2018-03-26T05:42:01.226Z,7.39
2018-03-26T05:43:01.245Z,7.40
2018-03-26T05:44:01.275Z,7.35
2018-03-26T05:45:01.294Z,7.24
2018-03-26T05:46:01.299Z,7.31
2018-03-26T05:47:01.346Z,7.10
2018-03-26T05:48:01.325Z,6.89
2018-03-26T05:49:01.332Z,6.82
2018-03-26T05:50:01.351Z,6.81
2018-03-26T05:51:01.357Z,6.89
2018-03-26T05:52:01.385Z,6.99
2018-03-26T05:53:01.449Z,6.97
2018-03-26T05:54:01.407Z,7.00
2018-03-26T05:55:01.444Z,7.17
2018-03-26T05:56:01.451Z,7.02
2018-03-26T05:57:01.459Z,7.11
2018-03-26T05:58:01.466Z,7.17
2018-03-26T05:59:01.482Z,7.15
2018-03-26T06:00:01.498Z,7.20
2018-03-26T06:01:01.516Z,7.25
2018-03-26T06:02:01.528Z,7.31
2018-03-26T06:03:01.541Z,7.14
2018-03-26T06:04:01.571Z,7.00
2018-03-26T06:05:01.578Z,6.93
2018-03-26T06:06:01.590Z,6.96
2018-03-26T06:07:01.623Z,7.02
2018-03-26T06:08:01.682Z,7.05
2018-03-26T06:09:01.630Z,6.97
2018-03-26T06:10:01.641Z,6.87
2018-03-26T06:11:01.661Z,7.02
2018-03-26T06:12:01.682Z,7.13
2018-03-26T06:13:01.686Z,7.35
2018-03-26T06:14:01.699Z,7.35
2018-03-26T06:15:01.726Z,7.48
2018-03-26T06:16:01.734Z,7.45
2018-03-26T06:17:01.759Z,7.50
2018-03-26T06:18:01.775Z,7.69
2018-03-26T06:19:01.779Z,7.66
2018-03-26T06:20:01.800Z,7.66
2018-03-26T06:21:01.807Z,7.77
2018-03-26T06:22:01.820Z,7.87
2018-03-26T06:23:01.893Z,7.93
2018-03-26T06:24:01.856Z,7.93
2018-03-26T06:25:01.882Z,7.70
2018-03-26T06:26:01.886Z,7.50
2018-03-26T06:27:01.913Z,7.47
2018-03-26T06:28:01.917Z,7.43
2018-03-26T06:29:01.983Z,7.60
2018-03-26T06:30:01.979Z,7.51
2018-03-26T06:31:02.059Z,7.54
2018-03-26T06:32:01.979Z,7.48
2018-03-26T06:33:02.006Z,7.56
2018-03-26T06:34:02.034Z,7.47
2018-03-26T06:35:02.045Z,7.56
2018-03-26T06:36:02.041Z,7.63
2018-03-26T06:37:02.049Z,7.56
2018-03-26T06:38:02.097Z,7.67
2018-03-26T06:39:02.088Z,7.67
2018-03-26T06:40:02.125Z,7.51
2018-03-26T06:41:02.121Z,7.42
2018-03-26T06:42:02.141Z,7.38
2018-03-26T06:43:02.177Z,7.54
2018-03-26T06:44:02.184Z,7.85
2018-03-26T06:45:02.176Z,7.98
2018-03-26T06:46:02.203Z,8.01
2018-03-26T06:47:02.245Z,8.31
2018-03-26T06:48:02.270Z,8.48
2018-03-26T06:49:02.241Z,8.66
2018-03-26T06:50:02.251Z,8.64
2018-03-26T06:51:02.281Z,8.37
2018-03-26T06:52:02.282Z,8.60
2018-03-26T06:53:02.332Z,8.88
2018-03-26T06:54:02.332Z,8.99
2018-03-26T06:55:02.349Z,9.21
2018-03-26T06:56:02.352Z,9.29
2018-03-26T06:57:02.367Z,9.19
2018-03-26T06:58:02.414Z,9.11
2018-03-26T06:59:02.401Z,9.39
2018-03-26T07:00:02.428Z,9.37
2018-03-26T07:01:02.434Z,9.41
2018-03-26T07:02:02.458Z,9.39
2018-03-26T07:03:02.467Z,9.41
2018-03-26T07:04:02.476Z,9.55
2018-03-26T07:05:02.491Z,9.46
2018-03-26T07:06:02.526Z,9.55
2018-03-26T07:07:02.549Z,9.47
2018-03-26T07:08:02.549Z,9.48
2018-03-26T07:09:02.558Z,9.22
2018-03-26T07:10:02.588Z,9.37
2018-03-26T07:11:02.601Z,9.43
2018-03-26T07:12:02.607Z,9.50
2018-03-26T07:13:02.634Z,9.65
2018-03-26T07:14:02.634Z,9.61
2018-03-26T07:15:02.696Z,9.64
2018-03-26T07:16:02.679Z,9.68
2018-03-26T07:17:02.705Z,9.59
2018-03-26T07:18:02.723Z,9.37
2018-03-26T07:19:02.724Z,9.32
2018-03-26T07:20:02.742Z,9.59
2018-03-26T07:21:02.778Z,9.54
2018-03-26T07:22:02.775Z,9.74
2018-03-26T07:23:02.803Z,9.84
2018-03-26T07:24:02.803Z,9.97
2018-03-26T07:25:02.847Z,9.95
2018-03-26T07:26:02.836Z,9.77
2018-03-26T07:27:02.859Z,9.92
2018-03-26T07:28:02.871Z,10.26
2018-03-26T07:29:02.903Z,10.30
2018-03-26T07:30:02.926Z,10.46
2018-03-26T07:31:02.935Z,10.64
2018-03-26T07:32:02.937Z,10.60
2018-03-26T07:33:02.960Z,10.41
2018-03-26T07:34:03.001Z,10.53
2018-03-26T07:35:03.003Z,10.90
2018-03-26T07:36:03.006Z,10.84
2018-03-26T07:37:03.017Z,11.14
2018-03-26T07:38:03.035Z,11.37
2018-03-26T07:39:03.053Z,11.30
2018-03-26T07:40:03.064Z,11.15
2018-03-26T07:41:03.108Z,11.23
2018-03-26T07:42:03.141Z,10.67
2018-03-26T07:43:03.141Z,10.93
2018-03-26T07:44:03.158Z,11.10
2018-03-26T07:45:03.206Z,11.35
2018-03-26T07:46:03.176Z,11.12
2018-03-26T07:47:03.195Z,11.07
2018-03-26T07:48:03.219Z,11.17
2018-03-26T07:49:03.234Z,10.89
2018-03-26T07:50:03.267Z,10.90
2018-03-26T07:51:03.295Z,11.15
2018-03-26T07:52:03.280Z,11.17
2018-03-26T07:53:03.307Z,11.37
2018-03-26T07:54:03.327Z,11.30
2018-03-26T07:55:03.330Z,11.12
2018-03-26T07:56:03.353Z,11.11
2018-03-26T07:57:03.382Z,11.15
2018-03-26T07:58:03.387Z,11.11
2018-03-26T07:59:03.391Z,11.07
2018-03-26T08:00:03.426Z,11.17
2018-03-26T08:01:03.438Z,10.82
2018-03-26T08:02:03.475Z,10.54
2018-03-26T08:03:03.472Z,10.42
2018-03-26T08:04:03.502Z,10.56
2018-03-26T08:05:03.526Z,10.56
2018-03-26T08:06:03.527Z,10.56
2018-03-26T08:07:03.540Z,10.67
2018-03-26T08:08:03.555Z,10.69
2018-03-26T08:09:03.574Z,10.37
2018-03-26T08:10:03.602Z,10.37
2018-03-26T08:11:03.637Z,10.40
2018-03-26T08:12:03.660Z,10.37
2018-03-26T08:13:03.663Z,10.49
2018-03-26T08:14:03.673Z,10.30
2018-03-26T08:15:03.673Z,10.48
2018-03-26T08:16:03.700Z,10.42
2018-03-26T08:17:03.716Z,10.19
2018-03-26T08:18:03.727Z,10.35
2018-03-26T08:19:03.742Z,10.40
2018-03-26T08:20:03.772Z,10.40
2018-03-26T08:21:03.762Z,10.44
2018-03-26T08:22:03.789Z,10.42
2018-03-26T08:23:03.815Z,10.56
2018-03-26T08:24:03.831Z,10.59
2018-03-26T08:25:03.860Z,10.48
2018-03-26T08:26:03.849Z,10.41
2018-03-26T08:27:03.872Z,10.10
2018-03-26T08:28:03.883Z,10.16
2018-03-26T08:29:03.917Z,9.86
2018-03-26T08:30:03.938Z,10.02
2018-03-26T08:31:03.984Z,9.98
2018-03-26T08:32:03.958Z,10.33
2018-03-26T08:33:03.988Z,10.44
2018-03-26T08:34:03.985Z,10.53
2018-03-26T08:35:04.006Z,10.99
2018-03-26T08:36:04.038Z,10.97
2018-03-26T08:37:04.041Z,11.14
2018-03-26T08:38:04.075Z,11.52
2018-03-26T08:39:04.074Z,11.35
2018-03-26T08:40:04.098Z,11.00
2018-03-26T08:41:04.118Z,10.90
2018-03-26T08:42:04.123Z,11.43
2018-03-26T08:43:04.145Z,11.41
2018-03-26T08:44:04.172Z,11.60
2018-03-26T08:45:04.167Z,11.86
2018-03-26T08:46:04.198Z,12.09
2018-03-26T08:47:04.217Z,12.35
2018-03-26T08:48:04.237Z,12.57
2018-03-26T08:49:04.242Z,12.10
2018-03-26T08:50:04.335Z,12.22
2018-03-26T08:51:04.277Z,12.42
2018-03-26T08:52:04.308Z,12.79
2018-03-26T08:53:04.309Z,13.12
2018-03-26T08:54:04.324Z,13.11
2018-03-26T08:55:04.356Z,13.31
2018-03-26T08:56:04.372Z,13.28
2018-03-26T08:57:04.414Z,13.22
2018-03-26T08:58:04.406Z,13.12
2018-03-26T08:59:04.426Z,13.39
2018-03-26T09:00:04.436Z,13.70
2018-03-26T09:01:04.459Z,13.99
2018-03-26T09:02:04.472Z,14.08
2018-03-26T09:03:04.494Z,13.96
2018-03-26T09:04:04.506Z,13.83
2018-03-26T09:05:04.525Z,13.50
2018-03-26T09:06:04.616Z,13.46
2018-03-26T09:07:04.588Z,13.33
2018-03-26T09:08:04.587Z,13.11
2018-03-26T09:09:04.600Z,13.52
2018-03-26T09:10:04.618Z,13.86
2018-03-26T09:11:04.667Z,13.62
2018-03-26T09:12:04.683Z,13.20
2018-03-26T09:13:04.678Z,13.41
2018-03-26T09:14:04.696Z,13.35
2018-03-26T09:15:04.708Z,12.98
2018-03-26T09:16:04.747Z,13.22
2018-03-26T09:17:04.755Z,13.77
2018-03-26T09:18:04.767Z,14.18
2018-03-26T09:19:04.784Z,14.18
2018-03-26T09:20:04.831Z,13.96
2018-03-26T09:21:04.822Z,13.15
2018-03-26T09:22:04.855Z,12.50
2018-03-26T09:23:04.882Z,12.79
2018-03-26T09:24:04.913Z,12.83
2018-03-26T09:25:04.898Z,13.18
2018-03-26T09:26:04.923Z,12.82
2018-03-26T09:27:04.939Z,12.86
2018-03-26T09:28:04.979Z,13.47
2018-03-26T09:29:05.002Z,13.53
2018-03-26T09:30:05.023Z,14.00
2018-03-26T09:31:05.044Z,13.95
2018-03-26T09:32:05.076Z,13.96
2018-03-26T09:33:05.078Z,13.77
2018-03-26T09:34:05.134Z,13.16
2018-03-26T09:35:05.103Z,13.54
2018-03-26T09:36:05.186Z,13.52
2018-03-26T09:37:05.119Z,12.90
2018-03-26T09:38:05.143Z,13.23
2018-03-26T09:39:05.164Z,13.39
2018-03-26T09:40:05.208Z,13.62
2018-03-26T09:41:05.208Z,13.63
2018-03-26T09:42:05.211Z,13.20
2018-03-26T09:43:05.270Z,13.49
2018-03-26T09:44:05.258Z,13.71
2018-03-26T09:45:05.313Z,13.72
2018-03-26T09:46:05.295Z,13.93
2018-03-26T09:47:05.370Z,13.67
2018-03-26T09:48:05.337Z,13.31
2018-03-26T09:49:05.332Z,13.04
2018-03-26T09:50:05.380Z,13.49
2018-03-26T09:51:05.412Z,13.62
2018-03-26T09:52:05.400Z,13.49
2018-03-26T09:53:05.419Z,13.41
2018-03-26T09:54:05.438Z,13.38
2018-03-26T09:55:05.440Z,13.15
2018-03-26T09:56:05.475Z,13.18
2018-03-26T09:57:05.503Z,13.16
2018-03-26T09:58:05.505Z,13.16
2018-03-26T09:59:05.522Z,13.33
2018-03-26T10:00:05.596Z,13.46
2018-03-26T10:01:05.604Z,13.25
2018-03-26T10:02:05.587Z,13.35
2018-03-26T10:03:05.594Z,13.31
2018-03-26T10:04:05.616Z,13.74
2018-03-26T10:05:05.660Z,13.72
2018-03-26T10:06:05.667Z,13.38
2018-03-26T10:07:05.688Z,13.13
2018-03-26T10:08:05.714Z,13.15
2018-03-26T10:09:05.749Z,12.97
2018-03-26T10:10:05.715Z,13.41
2018-03-26T10:11:05.759Z,13.44
2018-03-26T10:12:05.749Z,13.52
2018-03-26T10:13:05.800Z,13.57
2018-03-26T10:14:05.859Z,13.60
2018-03-26T10:15:05.814Z,13.47
2018-03-26T10:16:05.892Z,13.42
2018-03-26T10:17:05.846Z,13.09
2018-03-26T10:18:05.881Z,13.18
2018-03-26T10:19:05.888Z,12.90
2018-03-26T10:20:05.949Z,13.09
2018-03-26T10:21:05.932Z,12.94
2018-03-26T10:22:05.956Z,13.12
2018-03-26T10:23:05.957Z,13.09
2018-03-26T10:24:05.981Z,13.23
2018-03-26T10:25:06.005Z,13.30
2018-03-26T10:26:06.017Z,13.27
2018-03-26T10:27:06.041Z,13.75
2018-03-26T10:28:06.049Z,13.86
2018-03-26T10:29:06.075Z,14.23
2018-03-26T10:30:06.106Z,14.33
2018-03-26T10:31:06.109Z,14.50
2018-03-26T10:32:06.124Z,14.30
2018-03-26T10:33:06.181Z,13.96
2018-03-26T10:34:06.162Z,13.92
2018-03-26T10:35:06.198Z,13.97
2018-03-26T10:36:06.198Z,13.86
2018-03-26T10:37:06.262Z,13.72
2018-03-26T10:38:06.238Z,14.18
2018-03-26T10:39:06.301Z,13.62
2018-03-26T10:40:06.275Z,13.95
2018-03-26T10:41:06.324Z,13.56
2018-03-26T10:42:06.338Z,13.62
2018-03-26T10:43:06.335Z,13.99
2018-03-26T10:44:06.390Z,14.05
2018-03-26T10:45:06.372Z,14.07
2018-03-26T10:46:06.417Z,13.99
2018-03-26T10:47:06.434Z,13.99
2018-03-26T10:48:06.427Z,13.74
2018-03-26T10:49:06.454Z,13.15
2018-03-26T10:50:06.501Z,13.52
2018-03-26T10:51:06.496Z,13.97
2018-03-26T10:52:06.496Z,13.79
2018-03-26T10:53:06.572Z,14.08
2018-03-26T10:54:06.533Z,13.97
2018-03-26T10:55:06.558Z,14.36
2018-03-26T10:56:06.574Z,14.78
2018-03-26T10:57:06.600Z,14.96
2018-03-26T10:58:06.619Z,14.73
2018-03-26T10:59:06.637Z,14.81
2018-03-26T11:00:06.662Z,14.17
2018-03-26T11:01:06.675Z,14.79
2018-03-26T11:02:06.682Z,14.79
2018-03-26T11:03:06.704Z,14.48
2018-03-26T11:04:06.738Z,14.78
2018-03-26T11:05:06.747Z,14.88
2018-03-26T11:06:06.774Z,14.62
2018-03-26T11:07:06.795Z,14.53
2018-03-26T11:08:06.807Z,14.48
2018-03-26T11:09:06.823Z,14.77
2018-03-26T11:10:06.842Z,14.50
2018-03-26T11:11:06.910Z,14.69
2018-03-26T11:12:06.902Z,15.04
2018-03-26T11:13:06.895Z,14.99
2018-03-26T11:14:06.926Z,15.14
2018-03-26T11:15:06.947Z,15.04
2018-03-26T11:16:06.979Z,14.47
2018-03-26T11:17:06.976Z,14.82
2018-03-26T11:18:06.994Z,14.84
2018-03-26T11:19:07.002Z,14.92
2018-03-26T11:20:07.037Z,14.91
2018-03-26T11:21:07.045Z,14.33
2018-03-26T11:22:07.078Z,14.59
2018-03-26T11:23:07.119Z,14.41
2018-03-26T11:24:07.104Z,14.53
2018-03-26T11:25:07.142Z,14.43
2018-03-26T11:26:07.159Z,14.33
2018-03-26T11:27:07.156Z,14.33
2018-03-26T11:28:07.189Z,14.28
2018-03-26T11:29:07.205Z,14.17
2018-03-26T11:30:07.237Z,13.90
2018-03-26T11:31:07.241Z,13.97
2018-03-26T11:32:07.275Z,14.18
2018-03-26T11:33:07.293Z,14.30
2018-03-26T11:34:07.309Z,14.41
2018-03-26T11:35:07.344Z,14.33
2018-03-26T11:36:07.339Z,14.53
2018-03-26T11:37:07.416Z,14.18
2018-03-26T11:38:07.395Z,13.92
2018-03-26T11:39:07.399Z,14.10
2018-03-26T11:40:07.409Z,14.17
2018-03-26T11:41:07.435Z,14.35
2018-03-26T11:42:07.459Z,14.37
2018-03-26T11:43:07.464Z,14.60
2018-03-26T11:44:07.497Z,14.50
2018-03-26T11:45:07.501Z,14.41
2018-03-26T11:46:07.531Z,14.29
2018-03-26T11:47:07.538Z,14.28
2018-03-26T11:48:07.597Z,14.25
2018-03-26T11:49:07.631Z,14.55
2018-03-26T11:50:07.602Z,14.05
2018-03-26T11:51:07.634Z,13.95
2018-03-26T11:52:07.641Z,14.00
2018-03-26T11:53:07.734Z,13.77
2018-03-26T11:54:07.685Z,13.86
2018-03-26T11:55:07.695Z,13.75
2018-03-26T11:56:07.714Z,14.08
2018-03-26T11:57:07.746Z,13.87
2018-03-26T11:58:07.758Z,13.52
2018-03-26T11:59:07.822Z,13.53
2018-03-26T12:00:07.794Z,13.57
2018-03-26T12:01:07.843Z,13.50
2018-03-26T12:02:07.876Z,13.85
2018-03-26T12:03:07.859Z,14.11
2018-03-26T12:04:07.887Z,13.93
2018-03-26T12:05:07.903Z,14.10
2018-03-26T12:06:07.922Z,14.22
2018-03-26T12:07:07.923Z,14.07
2018-03-26T12:08:07.944Z,14.18
2018-03-26T12:09:07.976Z,14.10
2018-03-26T12:10:07.987Z,14.08
2018-03-26T12:11:07.996Z,14.12
2018-03-26T12:12:08.021Z,14.08
2018-03-26T12:13:08.089Z,14.25
2018-03-26T12:14:08.078Z,14.00
2018-03-26T12:15:08.153Z,13.89
2018-03-26T12:16:08.088Z,13.79
2018-03-26T12:17:08.156Z,13.74
2018-03-26T12:18:08.136Z,13.81
2018-03-26T12:19:08.142Z,13.71
2018-03-26T12:20:08.166Z,13.72
2018-03-26T12:21:08.207Z,14.03
2018-03-26T12:22:08.221Z,14.04
2018-03-26T12:23:08.215Z,14.11
2018-03-26T12:24:08.262Z,14.05
2018-03-26T12:25:08.268Z,13.86
2018-03-26T12:26:08.275Z,13.97
2018-03-26T12:27:08.299Z,14.23
2018-03-26T12:28:08.398Z,14.20
2018-03-26T12:29:08.351Z,14.23
2018-03-26T12:30:08.348Z,13.83
2018-03-26T12:31:08.390Z,14.32
2018-03-26T12:32:08.416Z,14.30
2018-03-26T12:33:08.436Z,14.26
2018-03-26T12:34:08.425Z,14.36
2018-03-26T12:35:08.450Z,14.47
2018-03-26T12:36:08.463Z,14.55
2018-03-26T12:37:08.552Z,14.58
2018-03-26T12:38:08.530Z,14.37
2018-03-26T12:39:08.526Z,14.53
2018-03-26T12:40:08.550Z,14.53
2018-03-26T12:41:08.557Z,14.62
2018-03-26T12:42:08.623Z,14.73
2018-03-26T12:43:08.650Z,14.84
2018-03-26T12:44:08.620Z,14.72
2018-03-26T12:45:08.671Z,14.55
2018-03-26T12:46:08.662Z,14.17
2018-03-26T12:47:08.672Z,14.60
2018-03-26T12:48:08.744Z,14.41
2018-03-26T12:49:08.750Z,14.28
2018-03-26T12:50:08.736Z,13.92
2018-03-26T12:51:08.756Z,13.95
2018-03-26T12:52:08.803Z,14.30
2018-03-26T12:53:08.792Z,14.73
2018-03-26T12:54:08.824Z,14.94
2018-03-26T12:55:08.904Z,14.97
2018-03-26T12:56:08.858Z,15.06
2018-03-26T12:57:08.861Z,14.97
2018-03-26T12:58:08.930Z,15.15
2018-03-26T12:59:08.897Z,15.27
2018-03-26T13:00:08.955Z,15.04
2018-03-26T13:01:08.961Z,15.22
2018-03-26T13:02:08.968Z,15.18
2018-03-26T13:03:08.981Z,15.42
2018-03-26T13:04:09.034Z,15.04
2018-03-26T13:05:09.018Z,14.62
2018-03-26T13:06:09.040Z,14.92
2018-03-26T13:07:09.061Z,14.94
2018-03-26T13:08:09.069Z,14.86